createdAt,value
2023-02-13T00:02:48.529Z,102224.81
2023-02-13T00:07:50.096Z,102227.38
2023-02-13T00:12:51.577Z,102231.03
2023-02-13T00:17:53.020Z,102217.13
2023-02-13T00:22:54.456Z,102220.75
2023-02-13T00:27:55.925Z,102219.91
2023-02-13T00:32:57.462Z,102219.91
2023-02-13T00:37:58.862Z,102205.41
2023-02-13T00:43:00.320Z,102217.63
2023-02-13T00:48:01.824Z,102218.25
2023-02-13T00:53:03.240Z,102225.00
2023-02-13T00:58:04.933Z,102222.00
2023-02-13T01:03:06.868Z,102221.13
2023-02-13T01:08:08.712Z,102216.34
2023-02-13T01:13:11.176Z,102217.09
2023-02-13T01:18:15.208Z,102211.59
2023-02-13T01:23:16.615Z,102209.94
2023-02-13T01:28:18.186Z,102215.94
2023-02-13T01:33:19.877Z,102206.66
2023-02-13T01:38:21.857Z,102198.63
2023-02-13T01:43:24.546Z,102197.78
2023-02-13T01:48:27.543Z,102208.31
2023-02-13T01:53:35.725Z,102204.91
2023-02-13T01:58:41.177Z,102203.13
2023-02-13T02:03:49.621Z,102187.03
2023-02-13T02:08:53.116Z,102187.88
2023-02-13T02:13:56.043Z,102174.38
2023-02-13T02:18:57.492Z,102187.69
2023-02-13T02:24:34.186Z,102186.50
2023-02-13T02:29:51.322Z,102187.78
2023-02-13T02:35:06.449Z,102165.50
2023-02-13T02:40:28.145Z,102185.19
2023-02-13T02:45:52.869Z,102175.19
2023-02-13T02:51:03.212Z,102180.19
2023-02-13T02:56:14.597Z,102181.84
2023-02-13T03:01:39.681Z,102183.56
2023-02-13T03:06:49.530Z,102185.38
2023-02-13T03:12:13.292Z,102195.16
2023-02-13T03:17:35.681Z,102180.97
2023-02-13T03:22:59.878Z,102172.91
2023-02-13T03:28:41.098Z,102175.59
2023-02-13T03:34:03.878Z,102179.13
2023-02-13T03:39:29.594Z,102183.72
2023-02-13T03:44:46.140Z,102186.41
2023-02-13T03:50:09.096Z,102169.56
2023-02-13T03:55:36.367Z,102186.69
2023-02-13T04:00:46.080Z,102187.31
2023-02-13T04:05:52.186Z,102179.81
2023-02-13T04:11:00.302Z,102176.94
2023-02-13T04:16:18.424Z,102170.69
2023-02-13T04:21:20.006Z,102175.22
2023-02-13T04:26:23.514Z,102180.00
2023-02-13T04:31:25.085Z,102172.06
2023-02-13T04:36:26.868Z,102174.72
2023-02-13T04:41:28.267Z,102164.06
2023-02-13T04:46:29.788Z,102177.34
2023-02-13T04:51:31.197Z,102168.47
2023-02-13T04:56:33.691Z,102161.41
2023-02-13T05:01:35.144Z,102158.63
2023-02-13T05:06:38.090Z,102160.41
2023-02-13T05:11:39.571Z,102150.69
2023-02-13T05:16:41.018Z,102152.47
2023-02-13T05:22:01.428Z,102154.50
2023-02-13T05:27:02.866Z,102156.06
2023-02-13T05:32:04.562Z,102151.72
2023-02-13T05:37:06.005Z,102159.84
2023-02-13T05:42:07.484Z,102160.72
2023-02-13T05:47:08.894Z,102158.72
2023-02-13T05:52:10.425Z,102156.94
2023-02-13T05:57:11.848Z,102168.66
2023-02-13T06:02:13.295Z,102168.38
2023-02-13T06:07:14.707Z,102164.84
2023-02-13T06:12:16.219Z,102167.34
2023-02-13T06:17:17.644Z,102175.59
2023-02-13T06:22:19.085Z,102181.81
2023-02-13T06:27:20.539Z,102182.78
2023-02-13T06:32:21.966Z,102193.72
2023-02-13T06:37:23.374Z,102185.72
2023-02-13T06:42:24.885Z,102200.50
2023-02-13T06:47:26.466Z,102193.44
2023-02-13T06:52:28.028Z,102198.44
2023-02-13T06:57:33.003Z,102197.28
2023-02-13T07:02:34.631Z,102200.53
2023-02-13T07:07:37.527Z,102196.50
2023-02-13T07:12:39.555Z,102191.22
2023-02-13T07:17:40.988Z,102192.69
2023-02-13T07:22:42.435Z,102185.31
2023-02-13T07:27:43.874Z,102181.66
2023-02-13T07:32:45.342Z,102171.69
2023-02-13T07:37:46.806Z,102188.59
2023-02-13T07:42:48.419Z,102181.84
2023-02-13T07:47:49.847Z,102185.09
2023-02-13T07:53:02.487Z,102182.09
2023-02-13T07:58:03.956Z,102174.47
2023-02-13T08:03:05.410Z,102184.19
2023-02-13T08:08:07.017Z,102182.75
2023-02-13T08:13:09.655Z,102189.22
2023-02-13T08:18:11.259Z,102183.91
2023-02-13T08:23:12.882Z,102187.81
2023-02-13T08:28:14.444Z,102185.25
2023-02-13T08:33:15.889Z,102177.88
2023-02-13T08:38:17.316Z,102188.41
2023-02-13T08:43:18.709Z,102178.75
2023-02-13T08:48:20.128Z,102179.00
2023-02-13T08:53:22.170Z,102184.91
2023-02-13T08:58:24.390Z,102178.72
2023-02-13T09:03:25.889Z,102176.97
2023-02-13T09:08:27.420Z,102176.97
2023-02-13T09:13:30.624Z,102194.78
2023-02-13T09:18:32.455Z,102191.94
2023-02-13T09:23:36.503Z,102204.44
2023-02-13T09:28:38.676Z,102213.97
2023-02-13T09:33:40.533Z,102222.59
2023-02-13T09:38:44.099Z,102221.81
2023-02-13T09:43:50.903Z,102218.72
2023-02-13T09:48:56.296Z,102222.94
2023-02-13T09:54:03.635Z,102238.38
2023-02-13T09:59:42.575Z,102225.69
2023-02-13T10:04:56.547Z,102235.13
2023-02-13T10:10:20.810Z,102232.34
2023-02-13T10:15:48.576Z,102231.13
2023-02-13T10:20:57.379Z,102210.09
2023-02-13T10:26:17.139Z,102229.66
2023-02-13T10:31:23.775Z,102234.50
2023-02-13T10:36:33.901Z,102217.16
2023-02-13T10:42:07.855Z,102213.22
2023-02-13T10:47:31.710Z,102214.88
2023-02-13T10:53:11.173Z,102209.78
2023-02-13T10:58:18.402Z,102212.53
2023-02-13T11:03:27.060Z,102198.88
2023-02-13T11:08:44.403Z,102197.44
2023-02-13T11:13:45.850Z,102200.66
2023-02-13T11:18:50.622Z,102207.84
2023-02-13T11:23:54.544Z,102188.91
2023-02-13T11:29:15.891Z,102176.50
2023-02-13T11:34:27.264Z,102177.91
2023-02-13T11:39:28.719Z,102175.19
2023-02-13T11:44:32.387Z,102164.59
2023-02-13T11:49:36.778Z,102164.59
2023-02-13T11:54:45.546Z,102168.66
2023-02-13T11:59:50.151Z,102171.31
2023-02-13T12:04:54.889Z,102184.16
2023-02-13T12:10:17.411Z,102178.09
2023-02-13T12:15:22.920Z,102180.41
2023-02-13T12:20:29.031Z,102188.69
2023-02-13T12:26:12.077Z,102169.94
2023-02-13T12:31:39.432Z,102170.09
2023-02-13T12:37:20.240Z,102173.81
2023-02-13T12:42:36.624Z,102150.13
2023-02-13T12:47:54.095Z,102155.25
2023-02-13T12:53:28.376Z,102163.16
2023-02-13T12:58:40.719Z,102163.28
2023-02-13T13:04:05.348Z,102148.72
2023-02-13T13:09:57.698Z,102139.38
2023-02-13T13:15:01.875Z,102149.19
2023-02-13T13:20:15.548Z,102144.53
2023-02-13T13:25:22.972Z,102152.09
2023-02-13T13:30:30.257Z,102145.31
2023-02-13T13:35:34.580Z,102154.00
2023-02-13T13:40:45.441Z,102161.44
2023-02-13T13:46:12.224Z,102150.59
2023-02-13T13:51:19.606Z,102136.06
2023-02-13T13:56:21.027Z,102143.19
2023-02-13T14:01:29.770Z,102150.81
2023-02-13T14:06:46.491Z,102139.69
2023-02-13T14:11:49.242Z,102129.59
2023-02-13T14:16:50.881Z,102141.22
2023-02-13T14:21:53.637Z,102139.59
2023-02-13T14:27:05.324Z,102132.38
2023-02-13T14:32:16.499Z,102112.25
2023-02-13T14:37:27.270Z,102122.28
2023-02-13T14:42:30.390Z,102106.19
2023-02-13T14:47:37.090Z,102104.66
2023-02-13T14:52:43.143Z,102087.16
2023-02-13T14:57:49.208Z,102084.44
2023-02-13T15:02:59.500Z,102093.09
2023-02-13T15:08:18.121Z,102077.72
2023-02-13T15:13:34.750Z,102072.50
2023-02-13T15:18:47.864Z,102070.94
2023-02-13T15:23:57.416Z,102062.41
2023-02-13T15:29:01.931Z,102063.69
2023-02-13T15:34:03.516Z,102086.94
2023-02-13T15:39:09.812Z,102088.31
2023-02-13T15:44:19.909Z,102079.53
2023-02-13T15:49:24.748Z,102073.69
2023-02-13T15:54:31.677Z,102069.09
2023-02-13T15:59:39.080Z,102067.19
2023-02-13T16:04:42.435Z,102080.66
2023-02-13T16:09:44.031Z,102069.13
2023-02-13T16:14:51.964Z,102075.28
2023-02-13T16:20:11.581Z,102066.81
2023-02-13T16:25:13.633Z,102071.00
2023-02-13T16:30:27.310Z,102052.66
2023-02-13T16:35:31.168Z,102058.16
2023-02-13T16:40:35.328Z,102063.28
2023-02-13T16:45:37.184Z,102058.28
2023-02-13T16:50:38.649Z,102079.53
2023-02-13T16:55:40.237Z,102073.81
2023-02-13T17:00:41.713Z,102062.84
2023-02-13T17:05:43.176Z,102061.78
2023-02-13T17:11:02.377Z,102045.53
2023-02-13T17:16:03.973Z,102044.00
2023-02-13T17:21:05.928Z,102052.13
2023-02-13T17:26:07.361Z,102047.28
2023-02-13T17:31:12.166Z,102035.66
2023-02-13T17:36:14.495Z,102035.44
2023-02-13T17:41:16.140Z,102037.19
2023-02-13T17:46:17.736Z,102039.72
2023-02-13T17:51:19.215Z,102048.72
2023-02-13T17:56:20.659Z,102059.72
2023-02-13T18:01:22.111Z,102050.44
2023-02-13T18:06:23.603Z,102059.16
2023-02-13T18:11:25.009Z,102038.25
2023-02-13T18:16:26.450Z,102028.53
2023-02-13T18:21:28.098Z,102038.19
2023-02-13T18:26:29.526Z,102036.50
2023-02-13T18:31:31.154Z,102037.28
2023-02-13T18:36:32.590Z,102051.53
2023-02-13T18:41:34.022Z,102027.75
2023-02-13T18:46:35.860Z,102023.38
2023-02-13T18:51:37.327Z,102038.72
2023-02-13T18:56:38.840Z,102042.63
2023-02-13T19:01:40.774Z,102049.94
2023-02-13T19:06:43.668Z,102051.19
2023-02-13T19:11:45.601Z,102051.66
2023-02-13T19:16:47.037Z,102065.09
2023-02-13T19:21:48.629Z,102070.59
2023-02-13T19:26:50.107Z,102078.44
2023-02-13T19:31:51.549Z,102076.69
2023-02-13T19:36:53.074Z,102069.16
2023-02-13T19:41:54.541Z,102078.16
2023-02-13T19:46:55.973Z,102073.50
2023-02-13T19:51:57.412Z,102077.13
2023-02-13T19:57:02.519Z,102085.50
2023-02-13T20:02:04.064Z,102096.75
2023-02-13T20:07:07.600Z,102101.22
2023-02-13T20:12:09.031Z,102096.56
2023-02-13T20:17:10.447Z,102104.25
2023-02-13T20:22:16.436Z,102110.28
2023-02-13T20:27:17.855Z,102110.44
2023-02-13T20:32:19.327Z,102118.97
2023-02-13T20:37:20.785Z,102124.91
2023-02-13T20:42:22.234Z,102125.28
2023-02-13T20:47:23.654Z,102130.66
2023-02-13T20:52:25.113Z,102143.84
2023-02-13T20:57:26.910Z,102162.94
2023-02-13T21:02:28.356Z,102154.69
2023-02-13T21:07:31.653Z,102171.91
2023-02-13T21:12:33.268Z,102163.41
2023-02-13T21:17:34.671Z,102170.81
2023-02-13T21:22:36.152Z,102163.50
2023-02-13T21:27:37.610Z,102175.47
2023-02-13T21:32:39.501Z,102185.28
2023-02-13T21:37:41.016Z,102173.84
2023-02-13T21:42:42.968Z,102183.72
2023-02-13T21:47:46.962Z,102174.13
2023-02-13T21:52:48.818Z,102167.03
2023-02-13T21:57:50.265Z,102175.13
2023-02-13T22:02:51.779Z,102183.34
2023-02-13T22:08:22.447Z,102190.56
2023-02-13T22:13:25.101Z,102191.63
2023-02-13T22:18:26.639Z,102184.78
2023-02-13T22:23:28.094Z,102188.59
2023-02-13T22:28:29.919Z,102190.84
2023-02-13T22:33:34.013Z,102199.84
2023-02-13T22:38:37.498Z,102186.03
2023-02-13T22:43:39.734Z,102190.25
2023-02-13T22:48:44.324Z,102174.53
2023-02-13T22:53:46.340Z,102178.03
2023-02-13T22:58:47.812Z,102182.94
2023-02-13T23:03:49.661Z,102184.56
2023-02-13T23:08:55.200Z,102185.66
2023-02-13T23:13:58.132Z,102186.22
2023-02-13T23:18:59.574Z,102192.50
2023-02-13T23:24:01.017Z,102181.81
2023-02-13T23:29:02.493Z,102178.94
2023-02-13T23:34:04.022Z,102179.22
2023-02-13T23:39:05.500Z,102177.72
2023-02-13T23:44:07.014Z,102185.91
2023-02-13T23:49:08.484Z,102177.53
2023-02-13T23:54:14.304Z,102181.50
2023-02-13T23:59:16.724Z,102180.22
